Time;durP1;ratioP1;P1;durP2;ratioP2;P2;SDS_P1;SDS_P2;PMS_P1;PMS_P2;Temp;Humidity;BMP_temperature;BMP_pressure;BME280_temperature;BME280_humidity;BME280_pressure;Samples;Min_cycle;Max_cycle;Signal;HPM_P1;HPM_P2
2022/05/28 00:01:05;;;;;;;0.80;0.80;;;;;;;;;;4920669;29;20076;-81
2022/05/28 00:03:34;;;;;;;7.82;7.10;;;;;;;;;;4902895;29;20044;-81
2022/05/28 00:06:01;;;;;;;0.95;0.95;;;;;;;;;;4901316;29;20040;-81
2022/05/28 00:08:29;;;;;;;0.80;0.80;;;;;;;;;;4921199;29;20075;-80
2022/05/28 00:10:58;;;;;;;0.70;0.70;;;;;;;;;;4878973;29;20048;-81
2022/05/28 00:13:25;;;;;;;1.33;0.80;;;;;;;;;;4925468;29;20036;-81
2022/05/28 00:15:53;;;;;;;0.60;0.60;;;;;;;;;;4906376;29;20044;-81
2022/05/28 00:18:21;;;;;;;2.55;0.70;;;;;;;;;;4908314;29;20104;-80
2022/05/28 00:20:49;;;;;;;1.50;0.80;;;;;;;;;;4907613;29;20040;-81
2022/05/28 00:23:16;;;;;;;0.75;0.70;;;;;;;;;;4910754;29;20036;-80
2022/05/28 00:25:44;;;;;;;0.80;0.80;;;;;;;;;;4925125;29;20065;-81
2022/05/28 00:28:11;;;;;;;0.90;0.90;;;;;;;;;;4908276;29;20052;-81
2022/05/28 00:30:38;;;;;;;0.95;0.88;;;;;;;;;;4893579;29;20047;-81
2022/05/28 00:33:06;;;;;;;3.25;0.90;;;;;;;;;;4924298;29;20048;-81
2022/05/28 00:35:33;;;;;;;0.90;0.90;;;;;;;;;;4921121;29;20052;-81
2022/05/28 00:38:01;;;;;;;1.02;1.00;;;;;;;;;;4917209;29;20523;-81
2022/05/28 00:40:28;;;;;;;0.90;0.90;;;;;;;;;;4924521;29;20073;-81
2022/05/28 00:43:02;;;;;;;6.90;0.98;;;;;;;;;;4914530;29;20043;-81
2022/05/28 00:45:31;;;;;;;1.55;1.10;;;;;;;;;;4918263;29;20056;-80
2022/05/28 00:48:01;;;;;;;0.90;0.90;;;;;;;;;;4922038;29;20095;-81
2022/05/28 00:50:29;;;;;;;0.73;0.73;;;;;;;;;;4925759;29;20076;-81
2022/05/28 00:52:57;;;;;;;0.90;0.90;;;;;;;;;;4926435;29;20072;-81
2022/05/28 00:55:24;;;;;;;0.80;0.80;;;;;;;;;;4909056;29;20064;-81
2022/05/28 00:57:52;;;;;;;1.58;0.90;;;;;;;;;;4920116;29;20090;-81
2022/05/28 01:00:21;;;;;;;0.80;0.80;;;;;;;;;;4921908;29;20086;-80
2022/05/28 01:02:53;;;;;;;0.82;0.82;;;;;;;;;;4917764;29;20131;-81
2022/05/28 01:05:31;;;;;;;1.08;0.90;;;;;;;;;;4927217;29;20047;-81
2022/05/28 01:08:29;;;;;;;0.88;0.80;;;;;;;;;;4917816;29;20044;-80
2022/05/28 01:11:05;;;;;;;1.40;0.88;;;;;;;;;;4920075;29;20032;-81
2022/05/28 01:13:35;;;;;;;2.85;1.10;;;;;;;;;;4911752;29;20400;-81
2022/05/28 01:16:03;;;;;;;1.42;1.33;;;;;;;;;;4900385;29;20529;-80
2022/05/28 01:18:36;;;;;;;1.05;1.00;;;;;;;;;;4915146;29;20056;-80
2022/05/28 01:21:09;;;;;;;1.00;1.00;;;;;;;;;;4922300;29;20099;-80
2022/05/28 01:23:45;;;;;;;2.25;1.08;;;;;;;;;;4918859;29;20043;-80
2022/05/28 01:26:16;;;;;;;1.35;1.20;;;;;;;;;;4918108;29;20125;-80
2022/05/28 01:28:47;;;;;;;0.90;0.90;;;;;;;;;;4918174;29;20036;-81
2022/05/28 01:31:14;;;;;;;2.40;1.30;;;;;;;;;;4915933;29;20511;-80
2022/05/28 01:33:43;;;;;;;1.20;1.20;;;;;;;;;;4884264;29;20529;-80
2022/05/28 01:36:12;;;;;;;1.65;1.10;;;;;;;;;;4913487;29;20140;-81
2022/05/28 01:38:40;;;;;;;1.85;1.20;;;;;;;;;;4914932;29;20047;-80
2022/05/28 01:41:09;;;;;;;1.10;1.10;;;;;;;;;;4898218;29;20072;-81
2022/05/28 01:43:40;;;;;;;1.40;1.30;;;;;;;;;;4906837;29;20044;-81
2022/05/28 01:46:09;;;;;;;1.17;1.08;;;;;;;;;;4904728;29;20051;-81
2022/05/28 01:48:38;;;;;;;1.73;1.38;;;;;;;;;;4911459;29;20046;-81
2022/05/28 01:51:06;;;;;;;1.30;1.20;;;;;;;;;;4883710;29;20154;-80
2022/05/28 01:56:22;;;;;;;1.42;1.33;;;;;;;;;;4916121;29;20056;-80
2022/05/28 01:58:49;;;;;;;1.48;1.20;;;;;;;;;;4919403;29;20104;-81
2022/05/28 02:01:16;;;;;;;5.55;1.17;;;;;;;;;;4925655;29;20100;-81
2022/05/28 02:03:45;;;;;;;2.53;1.70;;;;;;;;;;4915576;29;20048;-82
2022/05/28 02:06:13;;;;;;;1.38;1.27;;;;;;;;;;4899672;29;20044;-81
2022/05/28 02:08:43;;;;;;;1.40;1.30;;;;;;;;;;4917942;29;20040;-80
2022/05/28 02:11:21;;;;;;;1.75;1.38;;;;;;;;;;4916423;29;20076;-81
2022/05/28 02:13:48;;;;;;;1.60;1.02;;;;;;;;;;4902887;29;20048;-80
2022/05/28 02:16:18;;;;;;;1.70;1.60;;;;;;;;;;4918896;29;20048;-81
2022/05/28 02:19:06;;;;;;;2.90;1.42;;;;;;;;;;4909732;29;20157;-80
2022/05/28 02:21:42;;;;;;;3.08;1.20;;;;;;;;;;4910824;29;20228;-81
2022/05/28 02:24:17;;;;;;;2.00;1.60;;;;;;;;;;4918738;29;20055;-80
2022/05/28 02:26:47;;;;;;;1.80;1.70;;;;;;;;;;4913792;29;20059;-81
2022/05/28 02:29:15;;;;;;;3.55;1.58;;;;;;;;;;4919278;29;20052;-80
2022/05/28 02:31:47;;;;;;;1.65;1.40;;;;;;;;;;4902046;29;20095;-80
2022/05/28 02:34:14;;;;;;;;;;;;;;;;;;4902734;29;20096;-80
2022/05/28 02:36:42;;;;;;;1.50;1.40;;;;;;;;;;4903179;29;20471;-81
2022/05/28 02:39:09;;;;;;;2.25;1.50;;;;;;;;;;4901848;29;20119;-81
2022/05/28 02:41:36;;;;;;;1.77;1.58;;;;;;;;;;4919952;29;20496;-80
2022/05/28 02:44:04;;;;;;;2.28;1.52;;;;;;;;;;4915360;29;20072;-80
2022/05/28 02:46:32;;;;;;;3.40;1.30;;;;;;;;;;4907921;29;20047;-81
2022/05/28 02:48:59;;;;;;;2.17;2.03;;;;;;;;;;4905817;29;20347;-80
2022/05/28 02:51:27;;;;;;;1.90;1.70;;;;;;;;;;4923044;29;20104;-81
2022/05/28 02:53:54;;;;;;;3.33;1.40;;;;;;;;;;4903702;29;20036;-81
2022/05/28 02:56:22;;;;;;;1.60;1.50;;;;;;;;;;4904719;29;20638;-81
2022/05/28 02:58:50;;;;;;;2.35;1.48;;;;;;;;;;4906966;29;20175;-80
2022/05/28 03:01:24;;;;;;;2.35;1.40;;;;;;;;;;4908221;29;20172;-81
2022/05/28 03:03:51;;;;;;;1.77;1.35;;;;;;;;;;4906516;29;20449;-81
2022/05/28 03:06:19;;;;;;;1.35;1.25;;;;;;;;;;4902385;29;20108;-81
2022/05/28 03:08:46;;;;;;;1.50;1.38;;;;;;;;;;4907523;29;20048;-81
2022/05/28 03:11:14;;;;;;;3.08;1.58;;;;;;;;;;4925137;29;20036;-81
2022/05/28 03:13:41;;;;;;;1.98;1.50;;;;;;;;;;4909706;29;20071;-81
2022/05/28 03:16:10;;;;;;;2.17;1.42;;;;;;;;;;4930634;29;20082;-81
2022/05/28 03:18:38;;;;;;;2.13;1.35;;;;;;;;;;4928869;29;20083;-81
2022/05/28 03:21:06;;;;;;;2.55;1.50;;;;;;;;;;4922191;29;20068;-81
2022/05/28 03:23:34;;;;;;;1.70;1.40;;;;;;;;;;4927486;29;20064;-81
2022/05/28 03:26:18;;;;;;;2.92;1.40;;;;;;;;;;4920515;29;20052;-82
2022/05/28 03:28:47;;;;;;;2.85;1.55;;;;;;;;;;4922870;29;20434;-80
2022/05/28 03:31:14;;;;;;;3.17;1.65;;;;;;;;;;4905749;29;20134;-80
2022/05/28 03:33:42;;;;;;;2.35;1.35;;;;;;;;;;4908617;29;20489;-80
2022/05/28 03:36:10;;;;;;;1.40;1.25;;;;;;;;;;4910060;29;20470;-80
2022/05/28 03:38:38;;;;;;;2.15;1.25;;;;;;;;;;4889409;29;20477;-81
2022/05/28 03:41:05;;;;;;;2.35;1.13;;;;;;;;;;4903828;29;20052;-80
2022/05/28 03:43:33;;;;;;;1.88;1.10;;;;;;;;;;4905647;29;20115;-80
2022/05/28 03:46:01;;;;;;;2.35;1.70;;;;;;;;;;4921554;29;20044;-80
2022/05/28 03:48:28;;;;;;;3.50;1.60;;;;;;;;;;4913212;29;20091;-80
2022/05/28 03:50:56;;;;;;;3.33;1.20;;;;;;;;;;4886935;29;20045;-80
2022/05/28 03:53:24;;;;;;;4.97;2.00;;;;;;;;;;4891967;29;20498;-81
2022/05/28 03:55:51;;;;;;;1.50;1.40;;;;;;;;;;4911688;29;20694;-80
2022/05/28 03:58:19;;;;;;;1.50;1.20;;;;;;;;;;4903914;29;20048;-79
2022/05/28 04:00:46;;;;;;;3.72;1.55;;;;;;;;;;4896905;29;20554;-80
2022/05/28 04:03:13;;;;;;;1.80;1.27;;;;;;;;;;4911390;29;20051;-80
2022/05/28 04:05:41;;;;;;;1.83;1.65;;;;;;;;;;4896789;29;20048;-80
2022/05/28 04:08:08;;;;;;;5.25;1.65;;;;;;;;;;4898410;29;20135;-80
2022/05/28 04:10:36;;;;;;;1.67;1.58;;;;;;;;;;4918781;29;20040;-80
2022/05/28 04:13:03;;;;;;;1.25;1.17;;;;;;;;;;4917033;29;20040;-80
2022/05/28 04:15:32;;;;;;;3.53;1.27;;;;;;;;;;4883588;29;20091;-80
2022/05/28 04:18:00;;;;;;;2.47;1.40;;;;;;;;;;4913744;29;20056;-81
2022/05/28 04:20:27;;;;;;;5.07;1.40;;;;;;;;;;4911062;29;20416;-80
2022/05/28 04:22:55;;;;;;;1.52;1.40;;;;;;;;;;4897594;29;20614;-80
2022/05/28 04:25:22;;;;;;;2.15;1.58;;;;;;;;;;4913852;29;20079;-80
2022/05/28 04:27:50;;;;;;;3.08;1.63;;;;;;;;;;4897274;29;20032;-80
2022/05/28 04:30:17;;;;;;;2.70;1.27;;;;;;;;;;4910342;29;20429;-80
2022/05/28 04:32:45;;;;;;;1.77;1.20;;;;;;;;;;4899151;29;20100;-80
2022/05/28 04:35:12;;;;;;;4.80;1.40;;;;;;;;;;4907361;29;20066;-81
2022/05/28 04:37:40;;;;;;;2.75;1.50;;;;;;;;;;4909579;29;20047;-81
2022/05/28 04:40:08;;;;;;;1.88;1.50;;;;;;;;;;4900893;29;20182;-80
2022/05/28 04:42:35;;;;;;;3.95;1.58;;;;;;;;;;4898971;29;20055;-80
2022/05/28 04:45:03;;;;;;;5.25;1.40;;;;;;;;;;4906121;29;20062;-81
2022/05/28 04:47:31;;;;;;;1.70;1.45;;;;;;;;;;4921218;29;20059;-80
2022/05/28 04:49:58;;;;;;;2.42;1.58;;;;;;;;;;4920617;29;20108;-80
2022/05/28 04:52:26;;;;;;;6.90;1.65;;;;;;;;;;4921780;29;20135;-80
2022/05/28 04:54:53;;;;;;;2.67;1.60;;;;;;;;;;4907936;29;20052;-81
2022/05/28 04:57:21;;;;;;;3.53;1.42;;;;;;;;;;4921327;29;20103;-79
2022/05/28 04:59:48;;;;;;;3.95;2.10;;;;;;;;;;4917739;29;20108;-80
2022/05/28 05:02:16;;;;;;;2.65;1.50;;;;;;;;;;4914311;29;20055;-80
2022/05/28 05:04:43;;;;;;;3.20;1.52;;;;;;;;;;4908614;29;20120;-80
2022/05/28 05:07:10;;;;;;;3.25;1.70;;;;;;;;;;4889852;29;20063;-80
2022/05/28 05:09:38;;;;;;;4.68;1.75;;;;;;;;;;4891564;29;20812;-80
2022/05/28 05:12:05;;;;;;;2.95;1.65;;;;;;;;;;4910233;29;20036;-80
2022/05/28 05:14:33;;;;;;;4.05;1.60;;;;;;;;;;4888290;29;20068;-81
2022/05/28 05:17:00;;;;;;;4.65;1.63;;;;;;;;;;4910822;29;20155;-80
2022/05/28 05:19:27;;;;;;;5.38;1.40;;;;;;;;;;4910616;29;20040;-81
2022/05/28 05:21:55;;;;;;;2.92;1.65;;;;;;;;;;4897694;29;20576;-81
2022/05/28 05:24:24;;;;;;;2.10;1.73;;;;;;;;;;4903874;29;20588;-79
2022/05/28 05:26:51;;;;;;;2.78;1.92;;;;;;;;;;4898198;29;20048;-78
2022/05/28 05:29:19;;;;;;;6.57;1.92;;;;;;;;;;4909476;29;20055;-78
2022/05/28 05:31:47;;;;;;;2.72;1.70;;;;;;;;;;4889700;29;20159;-78
2022/05/28 05:34:14;;;;;;;1.92;1.73;;;;;;;;;;4878157;29;20571;-80
2022/05/28 05:36:42;;;;;;;4.95;2.00;;;;;;;;;;4881456;29;20131;-80
2022/05/28 05:39:09;;;;;;;3.90;1.92;;;;;;;;;;4893984;29;20425;-80
2022/05/28 05:41:40;;;;;;;2.78;1.80;;;;;;;;;;4916052;29;20650;-79
2022/05/28 05:44:08;;;;;;;2.60;1.63;;;;;;;;;;4914150;29;20059;-80
2022/05/28 05:46:35;;;;;;;2.15;1.50;;;;;;;;;;4916644;29;20363;-81
2022/05/28 05:49:04;;;;;;;4.88;1.80;;;;;;;;;;4910516;29;20072;-80
2022/05/28 05:51:31;;;;;;;3.22;1.50;;;;;;;;;;4915038;29;20119;-80
2022/05/28 05:53:59;;;;;;;3.65;1.95;;;;;;;;;;4909011;29;20115;-79
2022/05/28 05:56:26;;;;;;;4.07;1.73;;;;;;;;;;4909594;29;20099;-79
2022/05/28 05:58:54;;;;;;;3.28;1.85;;;;;;;;;;4913729;29;20087;-80
2022/05/28 06:01:21;;;;;;;2.72;1.70;;;;;;;;;;4896567;29;20066;-79
2022/05/28 06:03:49;;;;;;;4.35;1.75;;;;;;;;;;4895165;29;20052;-80
2022/05/28 06:06:17;;;;;;;2.22;1.60;;;;;;;;;;4915271;29;20052;-80
2022/05/28 06:08:46;;;;;;;3.72;1.80;;;;;;;;;;4919451;29;20127;-81
2022/05/28 06:11:13;;;;;;;4.55;1.63;;;;;;;;;;4904051;29;20076;-80
2022/05/28 06:13:40;;;;;;;4.60;1.67;;;;;;;;;;4912586;29;20059;-80
2022/05/28 06:16:08;;;;;;;4.20;1.90;;;;;;;;;;4925492;29;20052;-80
2022/05/28 06:18:40;;;;;;;2.35;1.50;;;;;;;;;;4906689;29;20051;-80
2022/05/28 06:21:08;;;;;;;5.35;2.05;;;;;;;;;;4913152;29;20600;-79
2022/05/28 06:23:35;;;;;;;3.50;1.85;;;;;;;;;;4896160;29;20509;-81
2022/05/28 06:26:03;;;;;;;6.15;1.75;;;;;;;;;;4909665;29;20135;-80
2022/05/28 06:28:32;;;;;;;2.97;1.60;;;;;;;;;;4894542;29;20096;-81
2022/05/28 06:31:03;;;;;;;2.97;1.60;;;;;;;;;;4900432;29;20075;-80
2022/05/28 06:33:30;;;;;;;3.47;1.65;;;;;;;;;;4899891;29;20124;-79
2022/05/28 06:35:59;;;;;;;4.45;1.80;;;;;;;;;;4916792;29;20046;-80
2022/05/28 06:38:27;;;;;;;6.43;1.52;;;;;;;;;;4897801;29;20048;-80
2022/05/28 06:40:54;;;;;;;5.47;1.73;;;;;;;;;;4915549;29;20135;-80
2022/05/28 06:43:22;;;;;;;4.20;1.90;;;;;;;;;;4917467;29;20465;-80
2022/05/28 06:45:49;;;;;;;4.35;1.67;;;;;;;;;;4892231;29;20079;-81
2022/05/28 06:48:17;;;;;;;2.50;1.30;;;;;;;;;;4901821;29;20130;-80
2022/05/28 06:51:02;;;;;;;4.65;1.58;;;;;;;;;;4907698;29;20049;-80
2022/05/28 06:53:36;;;;;;;3.65;1.50;;;;;;;;;;4900626;29;20139;-79
2022/05/28 06:56:04;;;;;;;4.38;1.38;;;;;;;;;;4882544;29;20072;-79
2022/05/28 06:58:31;;;;;;;7.85;1.88;;;;;;;;;;4865617;29;20057;-80
2022/05/28 07:00:59;;;;;;;4.43;1.55;;;;;;;;;;4898222;29;20462;-78
2022/05/28 07:03:28;;;;;;;4.47;1.50;;;;;;;;;;4913972;29;20118;-80
2022/05/28 07:05:55;;;;;;;6.18;1.38;;;;;;;;;;4916107;29;20647;-80
2022/05/28 07:08:23;;;;;;;7.45;1.67;;;;;;;;;;4917019;29;20133;-80
2022/05/28 07:10:52;;;;;;;7.00;2.10;;;;;;;;;;4915420;29;20076;-80
2022/05/28 07:13:20;;;;;;;4.47;1.45;;;;;;;;;;4920091;29;20834;-79
2022/05/28 07:18:37;;;;;;;4.10;1.20;;;;;;;;;;4891653;29;20052;-84
2022/05/28 07:21:19;;;;;;;;;;;;;;;;;;;;;
2022/05/28 07:23:49;;;;;;;4.68;1.40;;;;;;;;;;4878664;29;20528;-86
2022/05/28 07:26:21;;;;;;;4.00;1.13;;;;;;;;;;4895802;29;20048;-85
2022/05/28 07:28:55;;;;;;;2.15;1.08;;;;;;;;;;4899695;29;20036;-87
2022/05/28 07:31:45;;;;;;;4.07;1.17;;;;;;;;;;4891094;29;20568;-86
2022/05/28 07:34:13;;;;;;;3.55;1.73;;;;;;;;;;4891931;29;20645;-86
2022/05/28 07:36:44;;;;;;;1.92;1.00;;;;;;;;;;4877675;29;20494;-84
2022/05/28 07:39:45;;;;;;;2.13;0.90;;;;;;;;;;4877491;29;20523;-86
2022/05/28 07:42:15;;;;;;;2.65;1.15;;;;;;;;;;4861017;29;20425;-85
2022/05/28 07:44:53;;;;;;;9.73;1.60;;;;;;;;;;4877623;29;20148;-86
2022/05/28 07:47:33;;;;;;;2.95;1.02;;;;;;;;;;4879178;29;20490;-85
2022/05/28 07:50:21;;;;;;;2.25;1.05;;;;;;;;;;4877274;29;20128;-88
2022/05/28 07:52:49;;;;;;;4.70;1.10;;;;;;;;;;4860453;29;20048;-86
2022/05/28 07:55:24;;;;;;;2.90;1.10;;;;;;;;;;4845220;29;20057;-86
2022/05/28 07:57:54;;;;;;;2.03;0.90;;;;;;;;;;4877904;29;20100;-87
2022/05/28 08:00:27;;;;;;;8.25;3.22;;;;;;;;;;4877263;29;20045;-86
2022/05/28 08:02:58;;;;;;;4.13;0.80;;;;;;;;;;4860402;29;20056;-87
2022/05/28 08:05:33;;;;;;;1.77;0.73;;;;;;;;;;4877256;29;20715;-86
2022/05/28 08:08:05;;;;;;;2.45;0.75;;;;;;;;;;4876796;29;20045;-85
2022/05/28 08:10:33;;;;;;;2.35;0.90;;;;;;;;;;4860643;29;20075;-83
2022/05/28 08:13:04;;;;;;;1.35;0.98;;;;;;;;;;4860793;29;20041;-86
2022/05/28 08:15:32;;;;;;;4.22;0.80;;;;;;;;;;4876710;29;20049;-84
2022/05/28 08:17:59;;;;;;;2.45;1.17;;;;;;;;;;4845012;29;20597;-86
2022/05/28 08:23:14;;;;;;;3.42;0.90;;;;;;;;;;4877228;29;20525;-85
2022/05/28 08:25:42;;;;;;;3.00;0.82;;;;;;;;;;4877080;29;20475;-88
2022/05/28 08:28:16;;;;;;;1.58;0.70;;;;;;;;;;4881513;29;20052;-87
2022/05/28 08:30:44;;;;;;;2.08;0.80;;;;;;;;;;4869941;29;20041;-88
2022/05/28 08:33:15;;;;;;;3.38;1.08;;;;;;;;;;4882934;29;20128;-86
2022/05/28 08:35:50;;;;;;;2.78;1.10;;;;;;;;;;4872020;29;20141;-86
2022/05/28 08:38:19;;;;;;;3.35;1.10;;;;;;;;;;4888451;23;20074;-77
2022/05/28 08:40:48;;;;;;;2.10;0.90;;;;;;;;;;4897448;29;20043;-78
2022/05/28 08:43:17;;;;;;;2.28;0.90;;;;;;;;;;4893383;29;20045;-77
2022/05/28 08:45:46;;;;;;;2.25;0.95;;;;;;;;;;4877296;29;20069;-77
2022/05/28 08:48:17;;;;;;;5.20;0.85;;;;;;;;;;4875078;29;20090;-77
2022/05/28 08:51:04;;;;;;;2.75;0.90;;;;;;;;;;4875654;29;20537;-78
2022/05/28 08:53:34;;;;;;;4.20;0.88;;;;;;;;;;4875377;29;20144;-77
2022/05/28 08:56:02;;;;;;;1.70;1.05;;;;;;;;;;4874000;29;20041;-77
2022/05/28 08:58:30;;;;;;;5.78;0.80;;;;;;;;;;4880989;29;20136;-77
2022/05/28 09:01:02;;;;;;;4.43;0.70;;;;;;;;;;4874995;29;20204;-77
2022/05/28 09:03:33;;;;;;;1.73;0.90;;;;;;;;;;4874641;29;20538;-77
2022/05/28 09:06:04;;;;;;;1.58;0.70;;;;;;;;;;4840681;29;20064;-77
2022/05/28 09:08:31;;;;;;;4.10;0.80;;;;;;;;;;4857821;29;20041;-77
2022/05/28 09:11:02;;;;;;;1.02;0.88;;;;;;;;;;4874388;29;20041;-77
2022/05/28 09:13:32;;;;;;;0.93;0.70;;;;;;;;;;4889774;29;20063;-77
2022/05/28 09:16:03;;;;;;;1.98;0.95;;;;;;;;;;4865233;29;20132;-77
2022/05/28 09:18:34;;;;;;;2.92;1.02;;;;;;;;;;4875384;29;20112;-77
2022/05/28 09:21:02;;;;;;;0.88;0.70;;;;;;;;;;4881450;29;20328;-77
2022/05/28 09:23:37;;;;;;;2.28;1.10;;;;;;;;;;4861069;29;20057;-77
2022/05/28 09:26:05;;;;;;;2.40;0.65;;;;;;;;;;4884020;29;20052;-77
2022/05/28 09:28:45;;;;;;;1.25;0.60;;;;;;;;;;4871265;29;20057;-77
2022/05/28 09:31:27;;;;;;;1.65;0.60;;;;;;;;;;4847851;29;20052;-77
2022/05/28 09:34:02;;;;;;;1.40;0.80;;;;;;;;;;4871930;29;20093;-77
2022/05/28 09:36:32;;;;;;;1.92;0.70;;;;;;;;;;4858201;29;20045;-76
2022/05/28 09:39:18;;;;;;;0.93;0.65;;;;;;;;;;4832994;29;1093646;-76
2022/05/28 09:41:55;;;;;;;3.78;0.70;;;;;;;;;;4878933;29;20268;-77
2022/05/28 09:44:30;;;;;;;3.72;0.90;;;;;;;;;;4881141;29;20056;-77
2022/05/28 09:47:11;;;;;;;2.88;0.73;;;;;;;;;;4877697;29;20049;-76
2022/05/28 09:49:49;;;;;;;1.95;0.70;;;;;;;;;;4870119;29;20338;-77
2022/05/28 09:52:25;;;;;;;4.75;0.80;;;;;;;;;;4873857;29;20057;-77
2022/05/28 09:54:52;;;;;;;2.45;0.77;;;;;;;;;;4864676;29;20510;-78
2022/05/28 09:57:25;;;;;;;1.95;1.35;;;;;;;;;;4860868;29;20033;-78
2022/05/28 09:59:59;;;;;;;2.53;0.80;;;;;;;;;;4864806;29;20044;-77
2022/05/28 10:02:34;;;;;;;1.90;0.63;;;;;;;;;;4871625;29;20045;-77
2022/05/28 10:05:09;;;;;;;4.10;0.70;;;;;;;;;;4861899;29;20088;-77
2022/05/28 10:07:38;;;;;;;0.90;0.75;;;;;;;;;;4873917;29;20093;-77
2022/05/28 10:10:14;;;;;;;3.53;0.80;;;;;;;;;;4879439;29;20483;-78
2022/05/28 10:12:44;;;;;;;0.50;0.50;;;;;;;;;;4877047;29;20452;-77
2022/05/28 10:15:17;;;;;;;5.75;0.50;;;;;;;;;;4884427;29;20044;-78
2022/05/28 10:17:52;;;;;;;2.05;0.65;;;;;;;;;;4888491;29;20125;-78
2022/05/28 10:20:23;;;;;;;1.25;0.60;;;;;;;;;;4892030;29;20596;-78
2022/05/28 10:22:53;;;;;;;0.52;0.50;;;;;;;;;;4873960;29;20040;-76
2022/05/28 10:25:33;;;;;;;1.75;0.80;;;;;;;;;;4890472;29;20045;-82
2022/05/28 10:28:01;;;;;;;1.90;0.53;;;;;;;;;;4866272;29;20042;-77
2022/05/28 10:30:38;;;;;;;0.60;0.57;;;;;;;;;;4854785;29;20159;-77
2022/05/28 10:33:15;;;;;;;1.75;0.70;;;;;;;;;;4849306;29;20052;-76
2022/05/28 10:35:46;;;;;;;0.60;0.52;;;;;;;;;;4874559;29;20077;-77
2022/05/28 10:38:17;;;;;;;1.33;0.60;;;;;;;;;;4836922;29;20533;-75
2022/05/28 10:40:53;;;;;;;3.92;0.80;;;;;;;;;;4880709;29;20689;-78
2022/05/28 10:43:29;;;;;;;2.58;0.75;;;;;;;;;;4870103;29;20049;-76
2022/05/28 10:46:02;;;;;;;0.77;0.68;;;;;;;;;;4861330;29;20044;-77
2022/05/28 10:48:48;;;;;;;1.10;0.50;;;;;;;;;;4867338;29;20120;-77
2022/05/28 10:51:20;;;;;;;2.20;0.70;;;;;;;;;;4885672;29;20060;-77
2022/05/28 10:53:57;;;;;;;0.85;0.80;;;;;;;;;;4884920;29;20063;-77
2022/05/28 10:56:51;;;;;;;1.50;0.90;;;;;;;;;;4865069;29;20068;-79
2022/05/28 10:59:31;;;;;;;1.58;0.80;;;;;;;;;;4847582;29;20056;-79
2022/05/28 11:01:58;;;;;;;3.25;0.60;;;;;;;;;;4860603;29;20064;-78
2022/05/28 11:04:48;;;;;;;1.13;0.70;;;;;;;;;;4830575;29;20037;-79
2022/05/28 11:07:19;;;;;;;1.75;0.50;;;;;;;;;;4859753;29;20056;-78
2022/05/28 11:10:02;;;;;;;1.88;0.63;;;;;;;;;;4862637;29;20052;-76
2022/05/28 11:12:53;;;;;;;0.57;0.57;;;;;;;;;;4884674;29;20045;-77
2022/05/28 11:15:40;;;;;;;1.15;0.55;;;;;;;;;;4881626;29;20033;-77
2022/05/28 11:18:11;;;;;;;2.38;0.60;;;;;;;;;;4878337;29;20420;-77
2022/05/28 11:20:42;;;;;;;;;;;;;;;;;;4864860;29;20049;-78
2022/05/28 11:23:13;;;;;;;1.33;0.73;;;;;;;;;;4893504;29;19927;-76
2022/05/28 11:25:43;;;;;;;1.08;0.98;;;;;;;;;;4881565;29;20051;-77
2022/05/28 11:28:29;;;;;;;2.67;0.60;;;;;;;;;;4884969;29;20171;-78
2022/05/28 11:30:58;;;;;;;1.60;0.70;;;;;;;;;;4883650;29;20137;-78
2022/05/28 11:33:32;;;;;;;3.75;0.98;;;;;;;;;;4861190;29;20041;-78
2022/05/28 11:36:09;;;;;;;1.63;0.73;;;;;;;;;;4881836;29;20415;-78
2022/05/28 11:38:42;;;;;;;1.20;0.50;;;;;;;;;;4863266;29;20513;-77
2022/05/28 11:41:25;;;;;;;4.25;0.90;;;;;;;;;;4873086;29;20499;-77
2022/05/28 11:44:08;;;;;;;1.38;0.60;;;;;;;;;;4892409;29;20044;-76
2022/05/28 11:46:39;;;;;;;1.45;0.70;;;;;;;;;;4891077;29;20504;-76
2022/05/28 11:52:22;;;;;;;3.30;0.70;;;;;;;;;;4890578;29;20056;-77
2022/05/28 11:55:09;;;;;;;3.80;0.70;;;;;;;;;;4895857;29;20087;-77
2022/05/28 11:57:51;;;;;;;0.80;0.57;;;;;;;;;;4875330;29;20033;-77
2022/05/28 12:00:24;;;;;;;1.10;0.60;;;;;;;;;;4877982;29;20084;-79
2022/05/28 12:03:01;;;;;;;3.10;1.00;;;;;;;;;;4892197;29;20056;-78
2022/05/28 12:05:42;;;;;;;2.70;1.25;;;;;;;;;;4888214;29;20128;-78
2022/05/28 12:08:39;;;;;;;1.38;0.70;;;;;;;;;;4890297;29;20048;-78
2022/05/28 12:11:09;;;;;;;1.92;0.80;;;;;;;;;;4876951;29;20041;-78
2022/05/28 12:13:47;;;;;;;0.95;0.82;;;;;;;;;;4878110;29;20116;-77
2022/05/28 12:16:17;;;;;;;1.77;0.70;;;;;;;;;;4871983;29;20041;-76
2022/05/28 12:18:59;;;;;;;0.95;0.50;;;;;;;;;;4874011;29;20072;-76
2022/05/28 12:21:33;;;;;;;1.05;0.70;;;;;;;;;;4872476;29;20094;-76
2022/05/28 12:24:10;;;;;;;2.70;0.70;;;;;;;;;;4874428;29;20514;-77
2022/05/28 12:26:55;;;;;;;4.80;0.73;;;;;;;;;;4871971;29;20423;-76
2022/05/28 12:29:26;;;;;;;4.00;0.82;;;;;;;;;;4851927;29;20036;-76
2022/05/28 12:31:56;;;;;;;0.60;0.40;;;;;;;;;;4872719;29;20841;-77
2022/05/28 12:34:27;;;;;;;1.02;0.60;;;;;;;;;;4858255;29;20387;-76
2022/05/28 12:36:55;;;;;;;5.45;0.63;;;;;;;;;;4851778;29;20136;-76
2022/05/28 12:39:22;;;;;;;2.72;0.93;;;;;;;;;;4873666;29;20049;-75
2022/05/28 12:41:59;;;;;;;1.92;0.68;;;;;;;;;;4872117;29;20148;-77
2022/05/28 12:44:27;;;;;;;1.88;0.60;;;;;;;;;;4872383;29;20069;-78
2022/05/28 12:47:00;;;;;;;2.40;0.75;;;;;;;;;;4875778;29;20049;-76
2022/05/28 12:49:33;;;;;;;3.97;0.43;;;;;;;;;;4873837;29;20542;-77
2022/05/28 12:52:03;;;;;;;4.55;0.82;;;;;;;;;;4851680;29;20765;-80
2022/05/28 12:54:33;;;;;;;1.80;0.77;;;;;;;;;;4841831;29;20056;-79
2022/05/28 12:57:31;;;;;;;0.80;0.80;;;;;;;;;;4842207;29;20740;-78
2022/05/28 13:00:06;;;;;;;;;;;;;;;;;;4853217;29;20061;-78
2022/05/28 13:02:43;;;;;;;0.88;0.80;;;;;;;;;;4841728;29;20389;-80
2022/05/28 13:05:14;;;;;;;0.75;0.50;;;;;;;;;;4850863;29;20052;-80
2022/05/28 13:08:00;;;;;;;3.35;0.77;;;;;;;;;;4872851;29;20041;-80
2022/05/28 13:10:29;;;;;;;2.58;0.88;;;;;;;;;;4871835;29;20049;-77
2022/05/28 13:12:57;;;;;;;1.48;1.15;;;;;;;;;;4842291;29;20431;-79
2022/05/28 13:15:50;;;;;;;3.05;1.60;;;;;;;;;;4865852;24;20048;-82
2022/05/28 13:18:36;;;;;;;2.60;0.90;;;;;;;;;;4887835;29;20049;-83
2022/05/28 13:21:10;;;;;;;2.90;1.00;;;;;;;;;;4867332;29;20390;-83
2022/05/28 13:23:50;;;;;;;2.10;1.38;;;;;;;;;;4888565;29;20045;-82
2022/05/28 13:26:25;;;;;;;1.27;0.98;;;;;;;;;;4887803;29;20040;-84
2022/05/28 13:29:11;;;;;;;1.25;0.70;;;;;;;;;;4870736;29;20232;-84
2022/05/28 13:31:40;;;;;;;2.03;1.58;;;;;;;;;;4888815;29;20101;-82
2022/05/28 13:34:18;;;;;;;1.30;0.85;;;;;;;;;;4889969;29;20053;-84
2022/05/28 13:36:47;;;;;;;1.40;1.30;;;;;;;;;;4859503;29;20049;-83
2022/05/28 13:39:14;;;;;;;2.67;0.90;;;;;;;;;;4902894;29;20151;-82
2022/05/28 13:41:44;;;;;;;0.85;0.60;;;;;;;;;;4887691;29;20048;-81
2022/05/28 13:44:14;;;;;;;4.72;4.10;;;;;;;;;;4950911;23;20519;-81
2022/05/28 13:46:50;;;;;;;1.70;1.10;;;;;;;;;;4878608;29;20048;-79
2022/05/28 13:49:20;;;;;;;1.67;0.88;;;;;;;;;;4879360;29;20927;-79
2022/05/28 13:51:48;;;;;;;0.85;0.60;;;;;;;;;;4880146;29;20552;-79
2022/05/28 13:54:16;;;;;;;1.63;0.80;;;;;;;;;;4878244;29;20408;-79
2022/05/28 13:56:54;;;;;;;1.05;0.68;;;;;;;;;;4856030;29;20429;-80
2022/05/28 13:59:40;;;;;;;2.10;0.60;;;;;;;;;;4874433;29;20056;-79
2022/05/28 14:02:15;;;;;;;0.50;0.50;;;;;;;;;;4879820;29;20422;-80
2022/05/28 14:04:47;;;;;;;2.80;0.60;;;;;;;;;;4873013;29;20053;-80
2022/05/28 14:07:22;;;;;;;1.45;0.90;;;;;;;;;;4875357;29;20045;-78
2022/05/28 14:09:52;;;;;;;2.20;0.73;;;;;;;;;;4880177;29;20812;-80
2022/05/28 14:12:20;;;;;;;1.73;0.93;;;;;;;;;;4879021;29;20041;-80
2022/05/28 14:14:48;;;;;;;3.15;0.90;;;;;;;;;;4877986;29;20098;-79
2022/05/28 14:17:19;;;;;;;0.98;0.68;;;;;;;;;;4877871;29;20049;-80
2022/05/28 14:19:46;;;;;;;;;;;;;;;;;;4881193;29;20101;-80
2022/05/28 14:22:30;;;;;;;0.70;0.57;;;;;;;;;;4880508;29;19971;-81
2022/05/28 14:24:58;;;;;;;1.58;0.60;;;;;;;;;;4862236;29;20062;-81
2022/05/28 14:27:46;;;;;;;1.90;0.70;;;;;;;;;;4858618;29;20623;-80
2022/05/28 14:30:14;;;;;;;5.05;0.82;;;;;;;;;;4873914;29;20045;-80
2022/05/28 14:32:43;;;;;;;3.22;0.60;;;;;;;;;;4863768;29;20044;-83
2022/05/28 14:35:12;;;;;;;2.38;0.50;;;;;;;;;;4883071;29;20104;-79
2022/05/28 14:37:39;;;;;;;1.60;0.60;;;;;;;;;;4861668;29;20057;-80
2022/05/28 14:40:18;;;;;;;1.45;0.57;;;;;;;;;;4861063;29;20057;-80
2022/05/28 14:42:45;;;;;;;2.40;0.85;;;;;;;;;;4878247;29;20104;-80
2022/05/28 14:45:23;;;;;;;1.05;0.65;;;;;;;;;;4881495;29;20056;-80
2022/05/28 14:47:52;;;;;;;0.98;0.60;;;;;;;;;;4863887;29;20359;-81
2022/05/28 14:50:26;;;;;;;0.73;0.68;;;;;;;;;;4866232;29;20686;-80
2022/05/28 14:52:53;;;;;;;0.73;0.57;;;;;;;;;;4888051;29;20041;-80
2022/05/28 14:55:32;;;;;;;3.22;0.70;;;;;;;;;;4883760;29;20059;-80
2022/05/28 14:58:07;;;;;;;1.25;0.57;;;;;;;;;;4883101;29;20127;-80
2022/05/28 15:00:36;;;;;;;0.93;0.50;;;;;;;;;;4885162;29;20048;-81
2022/05/28 15:03:07;;;;;;;4.53;0.70;;;;;;;;;;4866285;29;20054;-81
2022/05/28 15:05:35;;;;;;;1.08;0.55;;;;;;;;;;4886277;29;20051;-80
2022/05/28 15:08:05;;;;;;;1.42;0.68;;;;;;;;;;4888702;29;20056;-80
2022/05/28 15:10:39;;;;;;;1.27;0.70;;;;;;;;;;4884222;29;20076;-80
2022/05/28 15:13:22;;;;;;;3.03;0.70;;;;;;;;;;4883578;29;20306;-80
2022/05/28 15:15:51;;;;;;;0.57;0.50;;;;;;;;;;4875727;29;20581;-79
2022/05/28 15:18:18;;;;;;;5.20;0.80;;;;;;;;;;4884087;29;20037;-79
2022/05/28 15:20:46;;;;;;;0.80;0.60;;;;;;;;;;4880549;29;20810;-80
2022/05/28 15:23:13;;;;;;;5.25;0.88;;;;;;;;;;4881585;29;20108;-80